• Join FlightAware (Why Join?)
  • Login
  • US Flag GB Flag 
00:22 EDT


 

Airport Tracker/Info


-or-


 

Live Flight TrackerFlight Track Log ✈ EJA831 ✈ 23-Jul-2013 ✈ CYYB - KBGR

Flight Track Log - Related Links

Times and Time Zones

All times are in EDT time to prevent confusion due to time zone crossing. See the EJA831 flight status page for this flight to view local times or setup timezone preferences in your user account.

Time Position Orientation Groundspeed Altitude Reporting Facility
EDT Latitude Longitude Course Direction KTS MPH feet Rate Location/Type
15:55 46.3000 -79.3833 90° East 270 311 7,500  Level Toronto Center
15:56 46.3000 -79.2667 90° East 290 334 10,800 3,120 Climbing Toronto Center
15:57 46.3000 -79.1500 90° East 330 380 13,800 2,820 Climbing Toronto Center
15:58 46.3000 -79.0000 90° East 340 391 16,500 3,000 Climbing Toronto Center
15:59 46.3000 -78.8667 90° East 350 403 19,800 3,060 Climbing Toronto Center
16:00 46.3000 -78.7167 90° East 350 403 22,700 2,760 Climbing Toronto Center
16:01 46.2833 -78.5667 99° East 360 414 25,400 2,100 Climbing Toronto Center
16:02 46.2667 -78.4500 102° East 370 426 26,900 1,500 Climbing Toronto Center
16:03 46.2333 -78.2833 106° East 390 449 28,400 1,500 Climbing Toronto Center
16:04 46.2167 -78.1167 98° East 410 472 29,900 1,620 Climbing Toronto Center
16:05 46.2000 -77.9500 98° East 420 483 31,700 1,680 Climbing Toronto Center
16:06 46.1833 -77.7833 98° East 420 483 33,300 1,920 Climbing Toronto Center
16:07 46.1667 -77.6167 98° East 400 460 35,600 1,740 Climbing Toronto Center
16:08 46.1500 -77.4667 99° East 390 449 36,800 1,140 Climbing Toronto Center
16:09 46.1167 -77.3000 106° East 410 472 37,900 960 Climbing Toronto Center
16:10 46.1000 -77.1500 99° East 410 472 38,800 900 Climbing Toronto Center
16:11 46.0833 -76.9833 98° East 410 472 39,800 1,020 Climbing Toronto Center
16:12 46.0667 -76.8167 98° East 410 472 40,900 600 Climbing Toronto Center
16:13 46.0500 -76.6500 98° East 410 472 41,000  Climbing Toronto Center
16:14 46.0167 -76.4833 106° East 420 483 41,000  Level Toronto Center
16:15 46.0000 -76.3167 98° East 430 495 41,000  Level Toronto Center
16:16 45.9833 -76.1500 98° East 430 495 41,000  Level Toronto Center
16:17 45.9500 -75.9833 106° East 440 506 41,000  Level Toronto Center
16:18 45.9333 -75.8167 98° East 440 506 41,000  Level Toronto Center
16:19 45.9167 -75.6333 97° East 440 506 41,000  Level Toronto Center
16:20 45.8833 -75.4667 106° East 440 506 41,000  Level Toronto Center
16:21 45.8667 -75.3000 98° East 440 506 41,000  Level Toronto Center
16:22 45.8500 -75.1333 98° East 440 506 41,000  Level Toronto Center
16:23 45.8167 -74.9333 103° East 440 506 41,000  Level Toronto Center
16:24 45.8000 -74.7833 99° East 440 506 41,000  Level Toronto Center
16:25 45.7667 -74.6167 106° East 430 495 41,000  Level Toronto Center
16:26 45.7500 -74.4500 98° East 430 495 41,000  Level Toronto Center
16:27 45.7167 -74.2833 106° East 430 495 41,000  Level Toronto Center
16:28 45.6833 -74.1000 105° East 430 495 41,000  Level Toronto Center
16:29 45.6500 -73.9333 106° East 430 495 41,000  Level Montreal Center
16:30 45.6333 -73.7667 98° East 450 518 41,000  Level Montreal Center
16:31 45.6167 -73.6000 98° East 440 506 41,000  Level Montreal Center
16:32 45.5833 -73.4333 106° East 440 506 41,000  Level Montreal Center
16:33 45.5500 -73.2667 106° East 440 506 41,000  Level Montreal Center
16:34 45.5167 -73.1000 106° East 440 506 41,000  Level Montreal Center
16:35 45.5000 -72.9000 97° East 440 506 41,000  Level Montreal Center
16:36 45.4833 -72.7500 99° East 440 506 41,000  Level Montreal Center
16:37 45.4333 -72.5833 113° Southeast 440 506 41,000  Level Montreal Center
16:38 45.4167 -72.4167 98° East 440 506 41,000  Level Montreal Center
16:39 45.4000 -72.2500 98° East 430 495 41,000  Level Montreal Center
16:40 45.3500 -72.0833 113° Southeast 430 495 41,000  Level Montreal Center
16:41 45.3333 -71.9167 98° East 430 495 41,000  Level Montreal Center
16:42 45.3000 -71.7333 104° East 440 506 41,000  Level Montreal Center
16:43 45.2917 -71.6142 96° East 433 498 41,000  Level Boston Center
16:44 45.2633 -71.4464 103° East 433 498 41,000 -840 Level Boston Center
16:45 45.2344 -71.2758 103° East 433 498 39,400 -1,920 Descending Boston Center
16:46 45.2036 -71.1117 105° East 433 498 37,200 -2,100 Descending Boston Center
16:47 45.1767 -70.9414 103° East 433 498 35,200 -1,920 Descending Boston Center
16:48 45.1450 -70.7597 104° East 433 498 33,000 -2,040 Descending Boston Center
16:49 45.1194 -70.5900 102° East 433 498 30,800 -2,280 Descending Boston Center
16:50 45.0894 -70.4203 104° East 433 498 28,500 -2,280 Descending Boston Center
16:51 45.0614 -70.2508 103° East 433 498 26,300 -2,220 Descending Boston Center
16:52 45.0308 -70.0786 104° East 438 504 24,100 -2,220 Descending Boston Center
16:53 45.0025 -69.9125 104° East 438 504 21,900 -2,220 Descending Boston Center
16:54 44.9739 -69.7553 104° East 425 489 19,700 -2,400 Descending Boston Center
16:55 44.9475 -69.6069 104° East 412 474 17,100 -2,460 Descending Boston Center
16:56 44.9206 -69.4497 104° East 393 452 14,800 -2,400 Descending Boston Center
16:57 44.8900 -69.3167 108° East 365 420 12,300 -2,760 Descending Boston Center
16:58 44.8372 -69.2169 127° Southeast 322 371 9,300 -2,880 Descending Boston Center
16:59 44.8197 -69.1153 104° East 276 318 6,600 -2,820 Descending Boston Center
17:00 44.8919 -69.0878 15° North 185 213 3,700 -1,800 Descending Boston Center
17:01 44.9461 -69.0878 360° North 180 207 3,000 -360 Descending Boston Center
17:02 44.9314 -69.0094 105° East 129 148 3,000 -300 Level Boston Center
17:03 44.8986 -68.9644 136° Southeast 129 148 2,400 -660 Descending Boston Center
17:04 44.8725 -68.9250 133° Southeast 135 155 1,700 -720 Descending Boston Center
17:05 44.8486 -68.8911 135° Southeast 135 155 1,000 -660 Descending Boston Center
17:06 44.8244 -68.8547 133° Southeast 129 148 400 -420 Descending Boston Center
17:07 44.7986 -68.8239 140° Southeast 123 142 200 5,280 Descending Boston Center
17:08 44.7722 -68.7875 136° Southeast 123 142 11,000 10,800 Climbing Boston Center
17:10 44.8000 -68.8167 325° Northwest  Level FlightAware Approximate
17:17 44.8074 -68.8281 325° Northwest  Level Estimated
17:18 44.8074 -68.8281 325° Northwest  Level Estimated